Página principal
METAR-TAF:

METAR-TAF

Aeroportos :

Aeroporto Internacional de Edmonton

Edmonton, Alberta, Canadá

latitude: 53-18N, longitude: 113-35W, altura: 715 m

Observação actual do tempo

O boletim foi feito há 17 minutos, às 09:00 UTC
Vento 7 kt de sul
Temperatura 11°C
Humidade 76%
Pressão 1018 hPa
Visibilidade: 24.1 km
Poucas nuvensa uma altura de 14000 ft
Poucas nuvensa uma altura de 25000 ft

METAR: CYEG 180900Z 17007KT 15SM FEW140 FEW250 11/07 A3007 RMK AC1CI1 AC TR SLP186 DENSITY ALT 2400FT

Hora: 03:17 (09:17 UTC)

Previsão

O boletim foi feito há 39 minutos, às 08:38 UTC
Previsão válida de 18 às 09 UTC a 19 às 06 UTC
Vento 7 kt de sul
Visibilidade: 10 km
Poucas nuvensa uma altura de 24000 ft
A partir de 18 às 1500 UTC
Vento 8 kt de sul
Visibilidade: 10 km
Céu limpo
A partir de 19 às 0300 UTC
Vento 5 kt de es-sudeste
Visibilidade: 10 km
Céu limpo

TAF: CYEG 180838Z 1809/1906 17007KT P6SM FEW240 FM181500 19008KT P6SM SKC FM190300 11005KT P6SM SKC RMK NXT FCST BY 181200Z

Observações e previsões do tempo de mais de 4000 aeroportos (mensagens METAR e TAF).

As estações disponíveis são os pontos amarelos e vermelhos sobre o mapa.

Mova o rato sobre o mapa para ver o nome da estação.

Depois clique no ponto para visualizar as observações e previsões meteorológicas.

Para alterar o mapa : clique nos botões verdes com uma cruz preta para aumentar o zoom; no botão verde com uma pitada de zoom; ou nas setas verdes para mapas adjacentes.


METAR-TAF: